sensor_id;sensor_type;location;lat;lon;timestamp;temperature;humidity
44823;DHT22;51097;51.984;5.650;2023-04-16T00:00:48;12.60;99.90
44823;DHT22;51097;51.984;5.650;2023-04-16T00:03:14;12.60;99.90
44823;DHT22;51097;51.984;5.650;2023-04-16T00:05:40;12.70;99.90
44823;DHT22;51097;51.984;5.650;2023-04-16T00:08:06;12.50;99.90
44823;DHT22;51097;51.984;5.650;2023-04-16T00:10:33;12.70;99.90
44823;DHT22;51097;51.984;5.650;2023-04-16T00:12:59;12.70;99.90
44823;DHT22;51097;51.984;5.650;2023-04-16T00:15:24;12.80;99.90
44823;DHT22;51097;51.984;5.650;2023-04-16T00:17:50;12.80;99.90
44823;DHT22;51097;51.984;5.650;2023-04-16T00:20:16;12.90;99.90
44823;DHT22;51097;51.984;5.650;2023-04-16T00:22:41;12.90;99.90
44823;DHT22;51097;51.984;5.650;2023-04-16T00:25:07;12.80;99.90
44823;DHT22;51097;51.984;5.650;2023-04-16T00:27:33;12.70;99.90
44823;DHT22;51097;51.984;5.650;2023-04-16T00:29:58;12.70;99.90
44823;DHT22;51097;51.984;5.650;2023-04-16T00:32:24;12.70;99.90
44823;DHT22;51097;51.984;5.650;2023-04-16T00:34:49;12.70;99.90
44823;DHT22;51097;51.984;5.650;2023-04-16T00:37:15;12.70;99.90
44823;DHT22;51097;51.984;5.650;2023-04-16T00:39:40;12.70;99.90
44823;DHT22;51097;51.984;5.650;2023-04-16T00:42:06;12.70;99.90
44823;DHT22;51097;51.984;5.650;2023-04-16T00:44:32;12.70;99.90
44823;DHT22;51097;51.984;5.650;2023-04-16T00:47:01;12.70;99.90
44823;DHT22;51097;51.984;5.650;2023-04-16T00:49:27;12.70;99.90
44823;DHT22;51097;51.984;5.650;2023-04-16T00:51:53;12.70;99.90
44823;DHT22;51097;51.984;5.650;2023-04-16T00:54:18;12.80;99.90
44823;DHT22;51097;51.984;5.650;2023-04-16T00:56:44;12.90;99.90
44823;DHT22;51097;51.984;5.650;2023-04-16T00:59:10;12.80;99.90
44823;DHT22;51097;51.984;5.650;2023-04-16T01:01:36;12.70;99.90
44823;DHT22;51097;51.984;5.650;2023-04-16T01:04:01;12.70;99.90
44823;DHT22;51097;51.984;5.650;2023-04-16T01:06:27;12.70;99.90
44823;DHT22;51097;51.984;5.650;2023-04-16T01:08:53;12.70;99.90
44823;DHT22;51097;51.984;5.650;2023-04-16T01:11:18;12.70;99.90
44823;DHT22;51097;51.984;5.650;2023-04-16T01:13:44;12.80;99.90
44823;DHT22;51097;51.984;5.650;2023-04-16T01:16:10;12.80;99.90
44823;DHT22;51097;51.984;5.650;2023-04-16T01:18:37;12.70;99.90
44823;DHT22;51097;51.984;5.650;2023-04-16T01:21:03;12.70;99.90
44823;DHT22;51097;51.984;5.650;2023-04-16T01:23:29;12.80;99.90
44823;DHT22;51097;51.984;5.650;2023-04-16T01:25:55;12.80;99.90
44823;DHT22;51097;51.984;5.650;2023-04-16T01:28:21;12.70;99.90
44823;DHT22;51097;51.984;5.650;2023-04-16T01:30:47;12.70;99.90
44823;DHT22;51097;51.984;5.650;2023-04-16T01:33:13;12.60;99.90
44823;DHT22;51097;51.984;5.650;2023-04-16T01:35:39;12.70;99.90
44823;DHT22;51097;51.984;5.650;2023-04-16T01:38:06;12.70;99.90
44823;DHT22;51097;51.984;5.650;2023-04-16T01:40:33;12.70;99.90
44823;DHT22;51097;51.984;5.650;2023-04-16T01:42:58;12.70;99.90
44823;DHT22;51097;51.984;5.650;2023-04-16T01:45:24;12.70;99.90
44823;DHT22;51097;51.984;5.650;2023-04-16T01:47:51;12.70;99.90
44823;DHT22;51097;51.984;5.650;2023-04-16T01:50:20;12.80;99.90
44823;DHT22;51097;51.984;5.650;2023-04-16T01:52:46;12.80;99.90
44823;DHT22;51097;51.984;5.650;2023-04-16T01:55:12;12.80;99.90
44823;DHT22;51097;51.984;5.650;2023-04-16T01:57:38;12.80;99.90
44823;DHT22;51097;51.984;5.650;2023-04-16T02:00:04;12.90;99.90
44823;DHT22;51097;51.984;5.650;2023-04-16T02:02:30;12.80;99.90
44823;DHT22;51097;51.984;5.650;2023-04-16T02:04:56;12.90;99.90
44823;DHT22;51097;51.984;5.650;2023-04-16T02:07:23;12.80;99.90
44823;DHT22;51097;51.984;5.650;2023-04-16T02:09:49;12.80;99.90
44823;DHT22;51097;51.984;5.650;2023-04-16T02:12:15;12.80;99.90
44823;DHT22;51097;51.984;5.650;2023-04-16T02:14:41;12.80;99.90
44823;DHT22;51097;51.984;5.650;2023-04-16T02:17:07;12.80;99.90
44823;DHT22;51097;51.984;5.650;2023-04-16T02:19:32;12.90;99.90
44823;DHT22;51097;51.984;5.650;2023-04-16T02:21:58;12.90;99.90
44823;DHT22;51097;51.984;5.650;2023-04-16T02:24:26;12.80;99.90
44823;DHT22;51097;51.984;5.650;2023-04-16T02:26:52;12.80;99.90
44823;DHT22;51097;51.984;5.650;2023-04-16T02:29:17;12.90;99.90
44823;DHT22;51097;51.984;5.650;2023-04-16T02:31:44;12.90;99.90
44823;DHT22;51097;51.984;5.650;2023-04-16T02:34:09;12.90;99.90
44823;DHT22;51097;51.984;5.650;2023-04-16T02:36:35;13.00;99.90
44823;DHT22;51097;51.984;5.650;2023-04-16T02:39:01;12.90;99.90
44823;DHT22;51097;51.984;5.650;2023-04-16T02:41:26;12.90;99.90
44823;DHT22;51097;51.984;5.650;2023-04-16T02:43:52;12.90;99.90
44823;DHT22;51097;51.984;5.650;2023-04-16T02:46:17;12.90;99.90
44823;DHT22;51097;51.984;5.650;2023-04-16T02:48:43;13.00;99.90
44823;DHT22;51097;51.984;5.650;2023-04-16T02:51:08;13.00;99.90
44823;DHT22;51097;51.984;5.650;2023-04-16T02:53:34;13.00;99.90
44823;DHT22;51097;51.984;5.650;2023-04-16T02:56:00;13.00;99.90
44823;DHT22;51097;51.984;5.650;2023-04-16T02:58:25;13.00;99.90
44823;DHT22;51097;51.984;5.650;2023-04-16T03:00:52;13.10;99.90
44823;DHT22;51097;51.984;5.650;2023-04-16T03:03:18;13.00;99.90
44823;DHT22;51097;51.984;5.650;2023-04-16T03:05:44;13.00;99.90
44823;DHT22;51097;51.984;5.650;2023-04-16T03:08:10;13.10;99.90
44823;DHT22;51097;51.984;5.650;2023-04-16T03:10:36;13.10;99.90
44823;DHT22;51097;51.984;5.650;2023-04-16T03:13:01;12.90;99.90
44823;DHT22;51097;51.984;5.650;2023-04-16T03:15:27;13.00;99.90
44823;DHT22;51097;51.984;5.650;2023-04-16T03:17:53;12.90;99.90
44823;DHT22;51097;51.984;5.650;2023-04-16T03:20:19;13.00;99.90
44823;DHT22;51097;51.984;5.650;2023-04-16T03:22:47;13.00;99.90
44823;DHT22;51097;51.984;5.650;2023-04-16T03:25:13;13.00;99.90
44823;DHT22;51097;51.984;5.650;2023-04-16T03:27:39;13.00;99.90
44823;DHT22;51097;51.984;5.650;2023-04-16T03:30:06;13.10;99.90
44823;DHT22;51097;51.984;5.650;2023-04-16T03:32:32;13.10;99.90
44823;DHT22;51097;51.984;5.650;2023-04-16T03:34:57;13.10;99.90
44823;DHT22;51097;51.984;5.650;2023-04-16T03:37:23;13.10;99.90
44823;DHT22;51097;51.984;5.650;2023-04-16T03:39:49;13.00;99.90
44823;DHT22;51097;51.984;5.650;2023-04-16T03:42:14;13.00;99.90
44823;DHT22;51097;51.984;5.650;2023-04-16T03:44:40;13.10;99.90
44823;DHT22;51097;51.984;5.650;2023-04-16T03:47:05;12.90;99.90
44823;DHT22;51097;51.984;5.650;2023-04-16T03:49:31;12.90;99.90
44823;DHT22;51097;51.984;5.650;2023-04-16T03:51:57;12.90;99.90
44823;DHT22;51097;51.984;5.650;2023-04-16T03:54:22;12.90;99.90
44823;DHT22;51097;51.984;5.650;2023-04-16T03:56:48;12.80;99.90
44823;DHT22;51097;51.984;5.650;2023-04-16T03:59:13;12.80;99.90
44823;DHT22;51097;51.984;5.650;2023-04-16T04:01:39;12.80;99.90
44823;DHT22;51097;51.984;5.650;2023-04-16T04:04:04;12.90;99.90
44823;DHT22;51097;51.984;5.650;2023-04-16T04:06:30;12.90;99.90
44823;DHT22;51097;51.984;5.650;2023-04-16T04:08:57;13.00;99.90
44823;DHT22;51097;51.984;5.650;2023-04-16T04:11:23;13.00;99.90
44823;DHT22;51097;51.984;5.650;2023-04-16T04:13:49;13.00;99.90
44823;DHT22;51097;51.984;5.650;2023-04-16T04:16:14;13.00;99.90
44823;DHT22;51097;51.984;5.650;2023-04-16T04:18:40;13.00;99.90
44823;DHT22;51097;51.984;5.650;2023-04-16T04:21:06;13.10;99.90
44823;DHT22;51097;51.984;5.650;2023-04-16T04:23:33;13.00;99.90
44823;DHT22;51097;51.984;5.650;2023-04-16T04:25:58;12.90;99.90
44823;DHT22;51097;51.984;5.650;2023-04-16T04:28:28;12.80;99.90
44823;DHT22;51097;51.984;5.650;2023-04-16T04:30:53;12.80;99.90
44823;DHT22;51097;51.984;5.650;2023-04-16T04:33:19;13.10;99.90
44823;DHT22;51097;51.984;5.650;2023-04-16T04:35:45;13.00;99.90
44823;DHT22;51097;51.984;5.650;2023-04-16T04:38:10;13.00;99.90
44823;DHT22;51097;51.984;5.650;2023-04-16T04:40:36;13.00;99.90
44823;DHT22;51097;51.984;5.650;2023-04-16T04:43:01;13.00;99.90
44823;DHT22;51097;51.984;5.650;2023-04-16T04:45:27;13.00;99.90
44823;DHT22;51097;51.984;5.650;2023-04-16T04:47:52;12.90;99.90
44823;DHT22;51097;51.984;5.650;2023-04-16T04:50:18;12.90;99.90
44823;DHT22;51097;51.984;5.650;2023-04-16T04:52:44;12.80;99.90
44823;DHT22;51097;51.984;5.650;2023-04-16T04:55:09;12.90;99.90
44823;DHT22;51097;51.984;5.650;2023-04-16T04:57:35;12.80;99.90
44823;DHT22;51097;51.984;5.650;2023-04-16T05:00:01;13.00;99.90
44823;DHT22;51097;51.984;5.650;2023-04-16T05:02:28;12.90;99.90
44823;DHT22;51097;51.984;5.650;2023-04-16T05:04:53;12.90;99.90
44823;DHT22;51097;51.984;5.650;2023-04-16T05:07:20;12.70;99.90
44823;DHT22;51097;51.984;5.650;2023-04-16T05:09:45;12.70;99.90
44823;DHT22;51097;51.984;5.650;2023-04-16T05:12:11;12.70;99.90
44823;DHT22;51097;51.984;5.650;2023-04-16T05:14:36;12.70;99.90
44823;DHT22;51097;51.984;5.650;2023-04-16T05:17:02;12.70;99.90
44823;DHT22;51097;51.984;5.650;2023-04-16T05:19:28;12.80;99.90
44823;DHT22;51097;51.984;5.650;2023-04-16T05:21:53;12.90;99.90
44823;DHT22;51097;51.984;5.650;2023-04-16T05:24:19;12.60;99.90
44823;DHT22;51097;51.984;5.650;2023-04-16T05:26:44;12.70;99.90
44823;DHT22;51097;51.984;5.650;2023-04-16T05:29:10;12.70;99.90
44823;DHT22;51097;51.984;5.650;2023-04-16T05:31:35;12.70;99.90
44823;DHT22;51097;51.984;5.650;2023-04-16T05:34:01;12.80;99.90
44823;DHT22;51097;51.984;5.650;2023-04-16T05:36:27;12.80;99.90
44823;DHT22;51097;51.984;5.650;2023-04-16T05:38:52;12.80;99.90
44823;DHT22;51097;51.984;5.650;2023-04-16T05:41:18;12.90;99.90
44823;DHT22;51097;51.984;5.650;2023-04-16T05:43:43;12.90;99.90
44823;DHT22;51097;51.984;5.650;2023-04-16T05:46:09;12.80;99.90
44823;DHT22;51097;51.984;5.650;2023-04-16T05:48:34;12.80;99.90
44823;DHT22;51097;51.984;5.650;2023-04-16T05:51:00;12.80;99.90
44823;DHT22;51097;51.984;5.650;2023-04-16T05:53:27;12.90;99.90
44823;DHT22;51097;51.984;5.650;2023-04-16T05:55:52;12.90;99.90
44823;DHT22;51097;51.984;5.650;2023-04-16T05:58:18;13.00;99.90
44823;DHT22;51097;51.984;5.650;2023-04-16T06:00:44;13.00;99.90
44823;DHT22;51097;51.984;5.650;2023-04-16T06:03:09;13.00;99.90
44823;DHT22;51097;51.984;5.650;2023-04-16T06:05:35;13.10;99.90
44823;DHT22;51097;51.984;5.650;2023-04-16T06:08:00;13.00;99.90
44823;DHT22;51097;51.984;5.650;2023-04-16T06:10:26;12.90;99.90
44823;DHT22;51097;51.984;5.650;2023-04-16T06:12:52;13.00;99.90
44823;DHT22;51097;51.984;5.650;2023-04-16T06:15:18;13.00;99.90
44823;DHT22;51097;51.984;5.650;2023-04-16T06:17:43;12.90;99.90
44823;DHT22;51097;51.984;5.650;2023-04-16T06:20:09;13.00;99.90
44823;DHT22;51097;51.984;5.650;2023-04-16T06:22:35;13.00;99.90
44823;DHT22;51097;51.984;5.650;2023-04-16T06:25:01;13.10;99.90
44823;DHT22;51097;51.984;5.650;2023-04-16T06:27:26;13.10;99.90
44823;DHT22;51097;51.984;5.650;2023-04-16T06:29:52;13.20;99.90
44823;DHT22;51097;51.984;5.650;2023-04-16T06:32:17;13.10;99.90
44823;DHT22;51097;51.984;5.650;2023-04-16T06:34:43;13.20;99.90
44823;DHT22;51097;51.984;5.650;2023-04-16T06:37:08;13.10;99.90
44823;DHT22;51097;51.984;5.650;2023-04-16T06:39:34;13.20;99.90
44823;DHT22;51097;51.984;5.650;2023-04-16T06:42:00;13.30;99.90
44823;DHT22;51097;51.984;5.650;2023-04-16T06:44:26;13.30;99.90
44823;DHT22;51097;51.984;5.650;2023-04-16T06:46:51;13.20;99.90
44823;DHT22;51097;51.984;5.650;2023-04-16T06:49:17;13.20;99.90
44823;DHT22;51097;51.984;5.650;2023-04-16T06:51:42;13.30;99.90
44823;DHT22;51097;51.984;5.650;2023-04-16T06:54:08;13.30;99.90
44823;DHT22;51097;51.984;5.650;2023-04-16T06:56:33;13.40;99.90
44823;DHT22;51097;51.984;5.650;2023-04-16T06:59:02;13.30;99.90
44823;DHT22;51097;51.984;5.650;2023-04-16T07:01:27;13.40;99.90
44823;DHT22;51097;51.984;5.650;2023-04-16T07:03:55;13.50;99.90
44823;DHT22;51097;51.984;5.650;2023-04-16T07:06:21;13.50;99.90
44823;DHT22;51097;51.984;5.650;2023-04-16T07:08:47;13.50;99.90
44823;DHT22;51097;51.984;5.650;2023-04-16T07:11:12;13.50;99.90
44823;DHT22;51097;51.984;5.650;2023-04-16T07:13:38;13.70;99.90
44823;DHT22;51097;51.984;5.650;2023-04-16T07:16:03;13.70;99.90
44823;DHT22;51097;51.984;5.650;2023-04-16T07:18:30;13.70;99.90
44823;DHT22;51097;51.984;5.650;2023-04-16T07:20:56;13.70;99.90
44823;DHT22;51097;51.984;5.650;2023-04-16T07:23:21;13.70;99.90
44823;DHT22;51097;51.984;5.650;2023-04-16T07:25:47;13.80;99.90
44823;DHT22;51097;51.984;5.650;2023-04-16T07:28:12;13.70;99.90
44823;DHT22;51097;51.984;5.650;2023-04-16T07:30:40;13.80;99.90
44823;DHT22;51097;51.984;5.650;2023-04-16T07:33:06;13.80;99.90
44823;DHT22;51097;51.984;5.650;2023-04-16T07:35:32;13.80;99.90
44823;DHT22;51097;51.984;5.650;2023-04-16T07:37:57;13.90;99.90
44823;DHT22;51097;51.984;5.650;2023-04-16T07:40:23;13.80;99.90
44823;DHT22;51097;51.984;5.650;2023-04-16T07:42:49;13.80;99.90
44823;DHT22;51097;51.984;5.650;2023-04-16T07:45:15;14.00;99.90
44823;DHT22;51097;51.984;5.650;2023-04-16T07:47:41;13.90;99.90
44823;DHT22;51097;51.984;5.650;2023-04-16T07:50:07;14.00;99.90
44823;DHT22;51097;51.984;5.650;2023-04-16T07:52:33;13.90;99.90
44823;DHT22;51097;51.984;5.650;2023-04-16T07:54:58;14.00;99.90
44823;DHT22;51097;51.984;5.650;2023-04-16T07:57:24;13.80;99.90
44823;DHT22;51097;51.984;5.650;2023-04-16T07:59:49;14.10;99.90
44823;DHT22;51097;51.984;5.650;2023-04-16T08:02:15;13.90;99.90
44823;DHT22;51097;51.984;5.650;2023-04-16T08:04:42;14.00;99.90
44823;DHT22;51097;51.984;5.650;2023-04-16T08:07:09;14.10;99.90
44823;DHT22;51097;51.984;5.650;2023-04-16T08:09:35;14.10;99.90
44823;DHT22;51097;51.984;5.650;2023-04-16T08:12:01;14.20;99.90
44823;DHT22;51097;51.984;5.650;2023-04-16T08:14:27;14.10;99.90
44823;DHT22;51097;51.984;5.650;2023-04-16T08:16:52;14.20;99.90
44823;DHT22;51097;51.984;5.650;2023-04-16T08:19:18;14.00;99.90
44823;DHT22;51097;51.984;5.650;2023-04-16T08:21:43;14.10;99.90
44823;DHT22;51097;51.984;5.650;2023-04-16T08:24:09;14.20;99.90
44823;DHT22;51097;51.984;5.650;2023-04-16T08:26:36;14.20;99.90
44823;DHT22;51097;51.984;5.650;2023-04-16T08:29:01;14.30;99.90
44823;DHT22;51097;51.984;5.650;2023-04-16T08:31:27;14.40;99.90
44823;DHT22;51097;51.984;5.650;2023-04-16T08:33:53;14.40;99.90
44823;DHT22;51097;51.984;5.650;2023-04-16T08:36:18;14.40;99.90
44823;DHT22;51097;51.984;5.650;2023-04-16T08:38:45;14.40;99.90
44823;DHT22;51097;51.984;5.650;2023-04-16T08:41:11;14.50;99.90
44823;DHT22;51097;51.984;5.650;2023-04-16T08:43:38;14.40;99.90
44823;DHT22;51097;51.984;5.650;2023-04-16T08:46:06;14.40;99.90
44823;DHT22;51097;51.984;5.650;2023-04-16T08:48:33;14.50;99.90
44823;DHT22;51097;51.984;5.650;2023-04-16T08:51:00;14.60;99.90
44823;DHT22;51097;51.984;5.650;2023-04-16T08:53:35;14.60;99.90
44823;DHT22;51097;51.984;5.650;2023-04-16T08:56:09;14.70;99.90
44823;DHT22;51097;51.984;5.650;2023-04-16T08:58:36;14.70;99.90
44823;DHT22;51097;51.984;5.650;2023-04-16T09:01:02;14.80;99.90
44823;DHT22;51097;51.984;5.650;2023-04-16T09:03:31;14.80;99.90
44823;DHT22;51097;51.984;5.650;2023-04-16T09:05:57;14.70;99.90
44823;DHT22;51097;51.984;5.650;2023-04-16T09:08:28;14.70;99.90
44823;DHT22;51097;51.984;5.650;2023-04-16T09:10:55;14.80;99.90
44823;DHT22;51097;51.984;5.650;2023-04-16T09:13:20;14.80;99.90
44823;DHT22;51097;51.984;5.650;2023-04-16T09:15:51;14.90;99.90
44823;DHT22;51097;51.984;5.650;2023-04-16T09:18:17;14.90;99.90
44823;DHT22;51097;51.984;5.650;2023-04-16T09:20:44;15.00;99.90
44823;DHT22;51097;51.984;5.650;2023-04-16T09:23:10;15.00;99.90
44823;DHT22;51097;51.984;5.650;2023-04-16T09:25:36;15.10;99.90
44823;DHT22;51097;51.984;5.650;2023-04-16T09:28:02;15.30;99.90
44823;DHT22;51097;51.984;5.650;2023-04-16T09:30:28;15.30;99.90
44823;DHT22;51097;51.984;5.650;2023-04-16T09:33:17;15.30;99.90
44823;DHT22;51097;51.984;5.650;2023-04-16T09:35:51;15.50;99.90
44823;DHT22;51097;51.984;5.650;2023-04-16T09:38:17;15.50;99.90
44823;DHT22;51097;51.984;5.650;2023-04-16T09:40:43;15.60;99.90
44823;DHT22;51097;51.984;5.650;2023-04-16T09:43:18;15.70;99.90
44823;DHT22;51097;51.984;5.650;2023-04-16T09:45:53;15.80;99.90
44823;DHT22;51097;51.984;5.650;2023-04-16T09:48:29;15.80;99.90
44823;DHT22;51097;51.984;5.650;2023-04-16T09:50:55;16.00;99.90
44823;DHT22;51097;51.984;5.650;2023-04-16T09:53:28;16.00;99.90
44823;DHT22;51097;51.984;5.650;2023-04-16T09:56:01;16.20;99.90
44823;DHT22;51097;51.984;5.650;2023-04-16T09:58:27;16.50;99.90
44823;DHT22;51097;51.984;5.650;2023-04-16T10:01:11;16.50;99.90
44823;DHT22;51097;51.984;5.650;2023-04-16T10:03:38;16.60;99.90
44823;DHT22;51097;51.984;5.650;2023-04-16T10:06:18;16.80;99.90
44823;DHT22;51097;51.984;5.650;2023-04-16T10:08:48;16.90;99.90
44823;DHT22;51097;51.984;5.650;2023-04-16T10:11:14;17.00;99.90
44823;DHT22;51097;51.984;5.650;2023-04-16T10:13:40;17.20;99.90
44823;DHT22;51097;51.984;5.650;2023-04-16T10:16:07;17.10;99.90
44823;DHT22;51097;51.984;5.650;2023-04-16T10:18:35;17.30;99.90
44823;DHT22;51097;51.984;5.650;2023-04-16T10:21:01;17.40;99.90
44823;DHT22;51097;51.984;5.650;2023-04-16T10:23:27;17.40;99.90
44823;DHT22;51097;51.984;5.650;2023-04-16T10:25:54;17.50;99.90
44823;DHT22;51097;51.984;5.650;2023-04-16T10:28:19;17.60;99.90
44823;DHT22;51097;51.984;5.650;2023-04-16T10:30:47;17.70;99.90
44823;DHT22;51097;51.984;5.650;2023-04-16T10:33:28;17.70;99.90
44823;DHT22;51097;51.984;5.650;2023-04-16T10:36:11;17.90;99.90
44823;DHT22;51097;51.984;5.650;2023-04-16T10:39:00;18.00;99.90
44823;DHT22;51097;51.984;5.650;2023-04-16T10:41:26;18.10;99.90
44823;DHT22;51097;51.984;5.650;2023-04-16T10:43:52;18.20;99.90
44823;DHT22;51097;51.984;5.650;2023-04-16T10:48:48;18.50;99.90
44823;DHT22;51097;51.984;5.650;2023-04-16T10:51:34;18.50;99.90
44823;DHT22;51097;51.984;5.650;2023-04-16T10:54:25;18.50;99.90
44823;DHT22;51097;51.984;5.650;2023-04-16T10:56:51;18.60;99.90
44823;DHT22;51097;51.984;5.650;2023-04-16T10:59:21;18.60;99.90
44823;DHT22;51097;51.984;5.650;2023-04-16T11:01:58;18.70;99.90
44823;DHT22;51097;51.984;5.650;2023-04-16T11:04:27;18.70;99.90
44823;DHT22;51097;51.984;5.650;2023-04-16T11:14:55;18.80;99.90
44823;DHT22;51097;51.984;5.650;2023-04-16T11:17:22;19.00;99.90
44823;DHT22;51097;51.984;5.650;2023-04-16T11:19:47;18.90;99.90
44823;DHT22;51097;51.984;5.650;2023-04-16T11:22:16;19.00;99.90
44823;DHT22;51097;51.984;5.650;2023-04-16T11:24:46;18.90;99.90
44823;DHT22;51097;51.984;5.650;2023-04-16T11:27:14;18.90;99.90
44823;DHT22;51097;51.984;5.650;2023-04-16T11:29:40;18.80;99.90
44823;DHT22;51097;51.984;5.650;2023-04-16T11:32:06;18.80;99.90
44823;DHT22;51097;51.984;5.650;2023-04-16T11:34:32;18.70;99.90
44823;DHT22;51097;51.984;5.650;2023-04-16T11:36:58;18.70;99.90
44823;DHT22;51097;51.984;5.650;2023-04-16T11:39:23;18.70;99.90
44823;DHT22;51097;51.984;5.650;2023-04-16T11:41:50;18.80;99.90
44823;DHT22;51097;51.984;5.650;2023-04-16T11:46:42;18.70;99.90
44823;DHT22;51097;51.984;5.650;2023-04-16T11:49:08;18.70;99.90
44823;DHT22;51097;51.984;5.650;2023-04-16T11:51:39;18.60;99.90
44823;DHT22;51097;51.984;5.650;2023-04-16T11:54:05;18.70;99.90
44823;DHT22;51097;51.984;5.650;2023-04-16T11:56:34;18.60;99.90
44823;DHT22;51097;51.984;5.650;2023-04-16T11:59:10;18.60;99.90
44823;DHT22;51097;51.984;5.650;2023-04-16T12:01:38;18.50;99.90
44823;DHT22;51097;51.984;5.650;2023-04-16T12:04:05;18.50;99.90
44823;DHT22;51097;51.984;5.650;2023-04-16T12:06:31;18.50;99.90
44823;DHT22;51097;51.984;5.650;2023-04-16T12:08:59;18.50;99.90
44823;DHT22;51097;51.984;5.650;2023-04-16T12:11:45;18.30;99.90
44823;DHT22;51097;51.984;5.650;2023-04-16T12:14:11;18.30;99.90
44823;DHT22;51097;51.984;5.650;2023-04-16T12:16:37;18.20;99.90
44823;DHT22;51097;51.984;5.650;2023-04-16T12:19:04;18.30;99.90
44823;DHT22;51097;51.984;5.650;2023-04-16T12:21:43;18.30;99.90
44823;DHT22;51097;51.984;5.650;2023-04-16T12:24:17;18.20;99.90
44823;DHT22;51097;51.984;5.650;2023-04-16T12:26:52;18.10;99.90
44823;DHT22;51097;51.984;5.650;2023-04-16T12:29:25;18.00;99.90
44823;DHT22;51097;51.984;5.650;2023-04-16T12:31:52;17.90;99.90
44823;DHT22;51097;51.984;5.650;2023-04-16T12:34:19;18.00;99.90
44823;DHT22;51097;51.984;5.650;2023-04-16T12:36:46;17.80;99.90
44823;DHT22;51097;51.984;5.650;2023-04-16T12:39:13;17.80;99.90
44823;DHT22;51097;51.984;5.650;2023-04-16T12:41:41;17.90;99.90
44823;DHT22;51097;51.984;5.650;2023-04-16T12:44:16;18.00;99.90
44823;DHT22;51097;51.984;5.650;2023-04-16T12:46:43;17.90;99.90
44823;DHT22;51097;51.984;5.650;2023-04-16T12:49:09;17.90;99.90
44823;DHT22;51097;51.984;5.650;2023-04-16T12:51:36;17.90;99.90
44823;DHT22;51097;51.984;5.650;2023-04-16T12:54:03;17.90;99.90
44823;DHT22;51097;51.984;5.650;2023-04-16T12:56:30;17.80;99.90
44823;DHT22;51097;51.984;5.650;2023-04-16T12:58:56;17.90;99.90
44823;DHT22;51097;51.984;5.650;2023-04-16T13:01:22;18.00;99.90
44823;DHT22;51097;51.984;5.650;2023-04-16T13:03:48;18.00;99.90
44823;DHT22;51097;51.984;5.650;2023-04-16T13:06:14;18.20;99.90
44823;DHT22;51097;51.984;5.650;2023-04-16T13:08:40;18.30;99.90
44823;DHT22;51097;51.984;5.650;2023-04-16T13:11:07;18.50;99.90
44823;DHT22;51097;51.984;5.650;2023-04-16T13:13:33;18.50;99.90
44823;DHT22;51097;51.984;5.650;2023-04-16T13:15:59;18.60;99.90
44823;DHT22;51097;51.984;5.650;2023-04-16T13:18:25;18.90;99.90
44823;DHT22;51097;51.984;5.650;2023-04-16T13:20:52;18.90;99.90
44823;DHT22;51097;51.984;5.650;2023-04-16T13:23:18;19.00;99.90
44823;DHT22;51097;51.984;5.650;2023-04-16T13:25:43;19.00;99.90
44823;DHT22;51097;51.984;5.650;2023-04-16T13:28:09;19.20;99.90
44823;DHT22;51097;51.984;5.650;2023-04-16T13:30:38;19.40;99.90
44823;DHT22;51097;51.984;5.650;2023-04-16T13:33:13;19.40;99.90
44823;DHT22;51097;51.984;5.650;2023-04-16T13:36:17;19.60;99.90
44823;DHT22;51097;51.984;5.650;2023-04-16T13:45:16;20.00;99.90
44823;DHT22;51097;51.984;5.650;2023-04-16T13:50:42;19.90;99.90
44823;DHT22;51097;51.984;5.650;2023-04-16T13:53:17;19.80;99.90
44823;DHT22;51097;51.984;5.650;2023-04-16T13:58:33;19.90;99.90
44823;DHT22;51097;51.984;5.650;2023-04-16T14:01:19;19.90;99.90
44823;DHT22;51097;51.984;5.650;2023-04-16T14:04:13;19.80;99.90
44823;DHT22;51097;51.984;5.650;2023-04-16T14:07:07;19.90;99.90
44823;DHT22;51097;51.984;5.650;2023-04-16T14:09:38;19.80;99.90
44823;DHT22;51097;51.984;5.650;2023-04-16T14:12:29;19.90;99.90
44823;DHT22;51097;51.984;5.650;2023-04-16T14:15:10;19.90;99.90
44823;DHT22;51097;51.984;5.650;2023-04-16T14:17:49;19.80;99.90
44823;DHT22;51097;51.984;5.650;2023-04-16T14:31:17;19.70;99.90
44823;DHT22;51097;51.984;5.650;2023-04-16T14:33:44;19.60;99.90
44823;DHT22;51097;51.984;5.650;2023-04-16T14:36:20;19.40;99.90
44823;DHT22;51097;51.984;5.650;2023-04-16T14:39:26;19.40;99.90
44823;DHT22;51097;51.984;5.650;2023-04-16T14:41:52;19.30;99.90
44823;DHT22;51097;51.984;5.650;2023-04-16T14:44:24;19.30;99.90
44823;DHT22;51097;51.984;5.650;2023-04-16T14:47:01;19.30;99.90
44823;DHT22;51097;51.984;5.650;2023-04-16T14:52:49;19.20;99.90
44823;DHT22;51097;51.984;5.650;2023-04-16T15:02:49;19.20;99.90
44823;DHT22;51097;51.984;5.650;2023-04-16T15:05:34;19.00;99.90
44823;DHT22;51097;51.984;5.650;2023-04-16T15:08:05;19.00;99.90
44823;DHT22;51097;51.984;5.650;2023-04-16T15:10:31;19.00;99.90
44823;DHT22;51097;51.984;5.650;2023-04-16T15:13:09;19.00;99.90
44823;DHT22;51097;51.984;5.650;2023-04-16T15:15:35;19.00;99.90
44823;DHT22;51097;51.984;5.650;2023-04-16T15:18:02;19.00;99.90
44823;DHT22;51097;51.984;5.650;2023-04-16T15:20:37;19.00;99.90
44823;DHT22;51097;51.984;5.650;2023-04-16T15:23:03;19.00;99.90
44823;DHT22;51097;51.984;5.650;2023-04-16T15:25:28;19.10;99.90
44823;DHT22;51097;51.984;5.650;2023-04-16T15:27:54;19.10;99.90
44823;DHT22;51097;51.984;5.650;2023-04-16T15:30:20;19.10;99.90
44823;DHT22;51097;51.984;5.650;2023-04-16T15:32:46;18.90;99.90
44823;DHT22;51097;51.984;5.650;2023-04-16T15:35:12;18.80;99.90
44823;DHT22;51097;51.984;5.650;2023-04-16T15:37:38;18.80;99.90
44823;DHT22;51097;51.984;5.650;2023-04-16T15:40:05;18.60;99.90
44823;DHT22;51097;51.984;5.650;2023-04-16T15:42:32;18.60;99.90
44823;DHT22;51097;51.984;5.650;2023-04-16T15:45:11;18.60;99.90
44823;DHT22;51097;51.984;5.650;2023-04-16T15:47:37;18.70;99.90
44823;DHT22;51097;51.984;5.650;2023-04-16T15:50:06;18.40;99.90
44823;DHT22;51097;51.984;5.650;2023-04-16T15:52:31;18.60;99.90
44823;DHT22;51097;51.984;5.650;2023-04-16T15:54:57;18.60;99.90
44823;DHT22;51097;51.984;5.650;2023-04-16T15:57:23;18.60;99.90
44823;DHT22;51097;51.984;5.650;2023-04-16T15:59:48;18.60;99.90
44823;DHT22;51097;51.984;5.650;2023-04-16T16:02:14;18.70;99.90
44823;DHT22;51097;51.984;5.650;2023-04-16T16:04:39;18.70;99.90
44823;DHT22;51097;51.984;5.650;2023-04-16T16:07:10;18.70;99.90
44823;DHT22;51097;51.984;5.650;2023-04-16T16:09:35;18.60;99.90
44823;DHT22;51097;51.984;5.650;2023-04-16T16:12:01;18.50;99.90
44823;DHT22;51097;51.984;5.650;2023-04-16T16:14:27;18.70;99.90
44823;DHT22;51097;51.984;5.650;2023-04-16T16:16:52;18.60;99.90
44823;DHT22;51097;51.984;5.650;2023-04-16T16:19:18;18.70;99.90